createdAt,value
2017-11-22T00:00:33.457Z,11.17
2017-11-22T00:03:01.091Z,11.17
2017-11-22T00:05:37.504Z,11.15
2017-11-22T00:08:05.204Z,11.15
2017-11-22T00:10:32.866Z,11.14
2017-11-22T00:13:00.612Z,11.14
2017-11-22T00:15:28.268Z,11.12
2017-11-22T00:17:56.024Z,11.11
2017-11-22T00:20:23.666Z,11.12
2017-11-22T00:22:51.327Z,11.13
2017-11-22T00:25:18.937Z,11.13
2017-11-22T00:27:46.592Z,11.14
2017-11-22T00:30:14.240Z,11.17
2017-11-22T00:32:41.909Z,11.16
2017-11-22T00:35:09.540Z,11.17
2017-11-22T00:37:37.231Z,11.20
2017-11-22T00:40:04.850Z,11.19
2017-11-22T00:42:32.587Z,11.19
2017-11-22T00:45:00.191Z,11.18
2017-11-22T00:47:27.867Z,11.17
2017-11-22T00:49:55.506Z,11.18
2017-11-22T00:52:23.140Z,11.21
2017-11-22T00:54:50.742Z,11.22
2017-11-22T00:57:18.381Z,11.23
2017-11-22T00:59:46.066Z,11.24
2017-11-22T01:02:13.753Z,11.28
2017-11-22T01:04:41.358Z,11.25
2017-11-22T01:07:08.996Z,11.25
2017-11-22T01:09:36.610Z,11.23
2017-11-22T01:12:04.234Z,11.22
2017-11-22T01:14:31.829Z,11.24
2017-11-22T01:16:59.458Z,11.21
2017-11-22T01:19:27.074Z,11.22
2017-11-22T01:21:54.711Z,11.23
2017-11-22T01:24:22.334Z,11.22
2017-11-22T01:26:49.999Z,11.21
2017-11-22T01:29:17.608Z,11.18
2017-11-22T01:31:45.230Z,11.16
2017-11-22T01:34:12.844Z,11.19
2017-11-22T01:36:40.521Z,11.17
2017-11-22T01:39:08.095Z,11.18
2017-11-22T01:41:35.752Z,11.18
2017-11-22T01:44:03.363Z,11.18
2017-11-22T01:46:31.042Z,11.21
2017-11-22T01:48:58.650Z,11.21
2017-11-22T01:51:26.280Z,11.23
2017-11-22T01:53:53.991Z,11.24
2017-11-22T01:56:21.634Z,11.26
2017-11-22T01:58:49.365Z,11.23
2017-11-22T02:01:16.999Z,11.21
2017-11-22T02:03:44.600Z,11.21
2017-11-22T02:06:12.243Z,11.23
2017-11-22T02:08:39.850Z,11.24
2017-11-22T02:11:07.483Z,11.20
2017-11-22T02:13:35.107Z,11.21
2017-11-22T02:16:02.734Z,11.23
2017-11-22T02:18:30.333Z,11.23
2017-11-22T02:20:57.967Z,11.26
2017-11-22T02:23:25.570Z,11.24
2017-11-22T02:25:53.197Z,11.25
2017-11-22T02:28:20.792Z,11.25
2017-11-22T02:30:48.436Z,11.28
2017-11-22T02:33:16.058Z,11.28
2017-11-22T02:35:43.738Z,11.26
2017-11-22T02:38:11.322Z,11.25
2017-11-22T02:40:38.956Z,11.28
2017-11-22T02:43:06.555Z,11.28
2017-11-22T02:45:34.187Z,11.28
2017-11-22T02:48:01.794Z,11.26
2017-11-22T02:50:29.405Z,11.25
2017-11-22T02:52:57.015Z,11.23
2017-11-22T02:55:24.638Z,11.22
2017-11-22T02:57:52.231Z,11.23
2017-11-22T03:00:19.886Z,11.24
2017-11-22T03:02:47.499Z,11.25
2017-11-22T03:05:15.118Z,11.23
2017-11-22T03:07:42.722Z,11.26
2017-11-22T03:10:10.447Z,11.30
2017-11-22T03:12:38.045Z,11.31
2017-11-22T03:15:05.662Z,11.29
2017-11-22T03:17:33.282Z,11.31
2017-11-22T03:20:00.942Z,11.35
2017-11-22T03:22:28.542Z,11.35
2017-11-22T03:24:56.235Z,11.35
2017-11-22T03:27:23.857Z,11.39
2017-11-22T03:29:51.495Z,11.40
2017-11-22T03:32:19.106Z,11.42
2017-11-22T03:34:46.740Z,11.42
2017-11-22T03:37:14.375Z,11.42
2017-11-22T03:39:41.987Z,11.42
2017-11-22T03:42:09.694Z,11.41
2017-11-22T03:44:37.324Z,11.38
2017-11-22T03:47:04.926Z,11.36
2017-11-22T03:49:37.949Z,11.35
2017-11-22T03:52:11.002Z,11.34
2017-11-22T03:54:38.755Z,11.34
2017-11-22T03:57:06.355Z,11.30
2017-11-22T03:59:33.984Z,11.28
2017-11-22T04:02:01.586Z,11.33
2017-11-22T04:04:29.215Z,11.31
2017-11-22T04:06:56.822Z,11.33
2017-11-22T04:09:24.495Z,11.32
2017-11-22T04:11:52.204Z,11.32
2017-11-22T04:14:19.827Z,11.31
2017-11-22T04:16:47.423Z,11.31
2017-11-22T04:19:20.819Z,11.31
2017-11-22T04:21:48.455Z,11.30
2017-11-22T04:24:16.087Z,11.30
2017-11-22T04:26:43.687Z,11.31
2017-11-22T04:29:11.350Z,11.31
2017-11-22T04:31:38.967Z,11.31
2017-11-22T04:34:06.592Z,11.32
2017-11-22T04:36:34.181Z,11.35
2017-11-22T04:39:01.826Z,11.37
2017-11-22T04:41:29.426Z,11.38
2017-11-22T04:43:57.038Z,11.36
2017-11-22T04:46:24.644Z,11.41
2017-11-22T04:48:52.271Z,11.44
2017-11-22T04:51:19.890Z,11.48
2017-11-22T04:53:47.523Z,11.47
2017-11-22T04:56:15.131Z,11.48
2017-11-22T04:58:42.767Z,11.50
2017-11-22T05:01:10.361Z,11.51
2017-11-22T05:03:37.994Z,11.50
2017-11-22T05:06:05.585Z,11.48
2017-11-22T05:08:33.313Z,11.48
2017-11-22T05:11:00.908Z,11.48
2017-11-22T05:13:28.542Z,11.51
2017-11-22T05:15:56.150Z,11.50
2017-11-22T05:18:23.898Z,11.51
2017-11-22T05:20:51.489Z,11.50
2017-11-22T05:23:19.119Z,11.50
2017-11-22T05:25:46.724Z,11.48
2017-11-22T05:28:14.359Z,11.49
2017-11-22T05:30:41.958Z,11.46
2017-11-22T05:33:09.589Z,11.47
2017-11-22T05:35:37.203Z,11.46
2017-11-22T05:38:04.830Z,11.48
2017-11-22T05:40:32.435Z,11.48
2017-11-22T05:43:00.066Z,11.50
2017-11-22T05:45:27.687Z,11.51
2017-11-22T05:47:55.325Z,11.47
2017-11-22T05:50:22.942Z,11.47
2017-11-22T05:52:50.591Z,11.47
2017-11-22T05:55:18.195Z,11.48
2017-11-22T05:57:45.828Z,11.49
2017-11-22T06:00:15.090Z,11.53
2017-11-22T06:02:42.733Z,11.52
2017-11-22T06:05:10.413Z,11.53
2017-11-22T06:07:38.045Z,11.53
2017-11-22T06:10:05.668Z,11.54
2017-11-22T06:12:33.298Z,11.58
2017-11-22T06:15:00.904Z,11.60
2017-11-22T06:17:28.543Z,11.66
2017-11-22T06:19:56.151Z,11.65
2017-11-22T06:22:23.890Z,11.67
2017-11-22T06:24:51.502Z,11.65
2017-11-22T06:27:19.160Z,11.65
2017-11-22T06:29:57.394Z,11.67
2017-11-22T06:32:25.017Z,11.70
2017-11-22T06:34:52.618Z,11.73
2017-11-22T06:37:20.282Z,11.71
2017-11-22T06:39:47.887Z,11.70
2017-11-22T06:42:15.522Z,11.71
2017-11-22T06:44:43.134Z,11.71
2017-11-22T06:47:10.762Z,11.74
2017-11-22T06:49:38.359Z,11.73
2017-11-22T06:52:06.067Z,11.73
2017-11-22T06:54:33.691Z,11.74
2017-11-22T06:57:01.325Z,11.77
2017-11-22T06:59:28.945Z,11.77
2017-11-22T07:01:59.415Z,11.75
2017-11-22T07:04:27.039Z,11.75
2017-11-22T07:06:54.673Z,11.75
2017-11-22T07:09:22.280Z,11.75
2017-11-22T07:11:49.930Z,11.74
2017-11-22T07:14:17.544Z,11.74
2017-11-22T07:16:50.658Z,11.76
2017-11-22T07:19:18.273Z,11.73
2017-11-22T07:21:46.036Z,11.69
2017-11-22T07:24:13.637Z,11.67
2017-11-22T07:26:41.298Z,11.67
2017-11-22T07:29:08.906Z,11.66
2017-11-22T07:31:36.524Z,11.66
2017-11-22T07:34:04.190Z,11.65
2017-11-22T07:36:37.316Z,11.61
2017-11-22T07:39:04.936Z,11.61
2017-11-22T07:41:32.549Z,11.62
2017-11-22T07:44:00.191Z,11.65
2017-11-22T07:46:27.801Z,11.67
2017-11-22T07:48:55.451Z,11.69
2017-11-22T07:51:28.683Z,11.72
2017-11-22T07:53:56.278Z,11.70
2017-11-22T07:56:23.889Z,11.73
2017-11-22T07:58:51.522Z,11.77
2017-11-22T08:01:19.132Z,11.74
2017-11-22T08:03:48.653Z,11.65
2017-11-22T08:06:16.353Z,11.63
2017-11-22T08:08:44.009Z,11.57
2017-11-22T08:11:11.639Z,11.56
2017-11-22T08:13:39.279Z,11.51
2017-11-22T08:16:06.890Z,11.47
2017-11-22T08:18:34.527Z,11.45
2017-11-22T08:21:02.172Z,11.43
2017-11-22T08:23:29.811Z,11.45
2017-11-22T08:25:57.506Z,11.44
2017-11-22T08:28:25.143Z,11.44
2017-11-22T08:30:52.767Z,11.48
2017-11-22T08:33:20.424Z,11.48
2017-11-22T08:35:48.031Z,11.51
2017-11-22T08:38:15.687Z,11.51
2017-11-22T08:40:43.303Z,11.52
2017-11-22T08:43:16.543Z,11.54
2017-11-22T08:45:44.169Z,11.55
2017-11-22T08:48:11.813Z,11.60
2017-11-22T08:50:39.447Z,11.63
2017-11-22T08:53:07.122Z,11.68
2017-11-22T08:55:40.371Z,11.68
2017-11-22T08:58:13.475Z,11.71
2017-11-22T09:00:41.083Z,11.79
2017-11-22T09:03:08.771Z,11.87
2017-11-22T09:05:43.205Z,11.91
2017-11-22T09:08:10.872Z,11.96
2017-11-22T09:10:39.100Z,11.98
2017-11-22T09:13:06.746Z,12.02
2017-11-22T09:15:34.375Z,12.08
2017-11-22T09:18:06.808Z,12.15
2017-11-22T09:20:34.503Z,12.18
2017-11-22T09:23:02.166Z,12.18
2017-11-22T09:25:29.822Z,12.19
2017-11-22T09:27:57.514Z,12.18
2017-11-22T09:30:25.136Z,12.20
2017-11-22T09:32:52.802Z,12.23
2017-11-22T09:35:20.444Z,12.32
2017-11-22T09:37:48.099Z,12.33
2017-11-22T09:40:15.721Z,12.43
2017-11-22T09:42:43.378Z,12.49
2017-11-22T09:45:11.107Z,12.62
2017-11-22T09:47:38.750Z,12.62
2017-11-22T09:50:06.354Z,12.69
2017-11-22T09:52:34.007Z,12.70
2017-11-22T09:55:03.333Z,12.71
2017-11-22T09:57:30.969Z,12.66
2017-11-22T09:59:58.742Z,12.63
2017-11-22T10:02:26.370Z,12.68
2017-11-22T10:04:53.984Z,12.67
2017-11-22T10:07:21.616Z,12.61
2017-11-22T10:09:49.234Z,12.60
2017-11-22T10:12:16.960Z,12.70
2017-11-22T10:14:44.588Z,12.82
2017-11-22T10:17:12.429Z,12.95
2017-11-22T10:19:45.337Z,13.05
2017-11-22T10:22:13.039Z,13.06
2017-11-22T10:24:44.402Z,13.00
2017-11-22T10:27:17.458Z,12.93
2017-11-22T10:29:46.370Z,12.84
2017-11-22T10:32:19.475Z,12.77
2017-11-22T10:34:47.093Z,12.81
2017-11-22T10:37:14.726Z,12.86
2017-11-22T10:39:42.335Z,12.99
2017-11-22T10:42:09.982Z,13.02
2017-11-22T10:44:37.579Z,13.14
2017-11-22T10:47:05.235Z,13.31
2017-11-22T10:49:32.839Z,13.34
2017-11-22T10:52:00.472Z,13.41
2017-11-22T10:54:28.081Z,13.34
2017-11-22T10:56:55.724Z,13.33
2017-11-22T10:59:23.384Z,13.46
2017-11-22T11:01:51.027Z,13.46
2017-11-22T11:04:19.225Z,13.45
2017-11-22T11:06:46.861Z,13.41
2017-11-22T11:09:14.482Z,13.48
2017-11-22T11:11:42.116Z,13.51
2017-11-22T11:14:09.742Z,13.64
2017-11-22T11:16:37.434Z,13.76
2017-11-22T11:19:05.095Z,13.76
2017-11-22T11:21:32.735Z,13.88
2017-11-22T11:24:00.331Z,14.05
2017-11-22T11:26:27.980Z,14.29
2017-11-22T11:28:55.596Z,14.40
2017-11-22T11:31:23.254Z,14.49
2017-11-22T11:33:50.873Z,14.57
2017-11-22T11:36:30.180Z,14.48
2017-11-22T11:38:57.783Z,14.63
2017-11-22T11:41:25.412Z,14.77
2017-11-22T11:43:53.027Z,15.13
2017-11-22T11:46:20.670Z,15.23
2017-11-22T11:48:48.280Z,15.15
2017-11-22T11:51:15.934Z,15.19
2017-11-22T11:53:43.639Z,15.35
2017-11-22T11:56:11.287Z,15.39
2017-11-22T11:58:38.921Z,15.43
2017-11-22T12:01:06.572Z,15.57
2017-11-22T12:03:34.190Z,15.61
2017-11-22T12:06:01.814Z,15.50
2017-11-22T12:08:29.442Z,15.47
2017-11-22T12:10:57.074Z,15.29
2017-11-22T12:13:24.693Z,15.58
2017-11-22T12:15:52.295Z,15.61
2017-11-22T12:18:19.944Z,15.74
2017-11-22T12:20:53.114Z,15.71
2017-11-22T12:23:24.594Z,15.77
2017-11-22T12:25:52.251Z,15.69
2017-11-22T12:28:19.861Z,15.67
2017-11-22T12:30:47.555Z,15.78
2017-11-22T12:33:15.210Z,15.84
2017-11-22T12:35:42.815Z,15.93
2017-11-22T12:38:10.476Z,15.96
2017-11-22T12:40:38.093Z,15.87
2017-11-22T12:43:05.737Z,15.87
2017-11-22T12:45:33.340Z,15.98
2017-11-22T12:48:01.030Z,16.06
2017-11-22T12:50:28.642Z,16.12
2017-11-22T12:52:56.315Z,16.11
2017-11-22T12:55:23.922Z,15.92
2017-11-22T12:57:54.442Z,16.03
2017-11-22T13:00:22.040Z,16.14
2017-11-22T13:02:49.674Z,16.19
2017-11-22T13:05:17.266Z,16.27
2017-11-22T13:07:44.890Z,16.19
2017-11-22T13:10:18.102Z,16.11
2017-11-22T13:12:45.729Z,16.05
2017-11-22T13:15:13.342Z,15.97
2017-11-22T13:17:41.755Z,16.10
2017-11-22T13:20:09.375Z,16.14
2017-11-22T13:22:37.059Z,16.11
2017-11-22T13:25:04.711Z,16.02
2017-11-22T13:27:32.347Z,16.12
2017-11-22T13:29:59.970Z,16.14
2017-11-22T13:32:41.995Z,16.16
2017-11-22T13:35:09.752Z,16.10
2017-11-22T13:37:37.390Z,16.07
2017-11-22T13:40:05.023Z,16.01
2017-11-22T13:42:32.678Z,16.05
2017-11-22T13:45:00.267Z,16.00
2017-11-22T13:47:27.885Z,15.97
2017-11-22T13:49:55.496Z,15.92
2017-11-22T13:52:23.190Z,15.96
2017-11-22T13:54:50.798Z,15.78
2017-11-22T13:57:18.466Z,15.74
2017-11-22T13:59:46.082Z,15.60
2017-11-22T14:02:13.711Z,15.54
2017-11-22T14:04:41.378Z,15.45
2017-11-22T14:07:09.009Z,15.34
2017-11-22T14:09:36.623Z,15.31
2017-11-22T14:12:04.251Z,15.23
2017-11-22T14:14:31.852Z,15.14
2017-11-22T14:16:59.497Z,15.06
2017-11-22T14:19:27.097Z,14.90
2017-11-22T14:21:54.750Z,14.87
2017-11-22T14:24:22.346Z,14.85
2017-11-22T14:26:50.009Z,14.84
2017-11-22T14:29:17.693Z,14.80
2017-11-22T14:31:45.389Z,14.80
2017-11-22T14:34:13.015Z,14.73
2017-11-22T14:36:40.663Z,14.69
2017-11-22T14:39:08.263Z,14.66
2017-11-22T14:41:35.930Z,14.68
2017-11-22T14:44:03.587Z,14.67
2017-11-22T14:46:31.241Z,14.65
2017-11-22T14:48:59.036Z,14.62
2017-11-22T14:51:26.784Z,14.55
2017-11-22T14:53:54.402Z,14.44
2017-11-22T14:56:22.029Z,14.33
2017-11-22T14:58:49.608Z,14.26
2017-11-22T15:01:17.258Z,14.24
2017-11-22T15:03:45.031Z,14.19
2017-11-22T15:06:12.686Z,14.13
2017-11-22T15:08:40.291Z,14.09
2017-11-22T15:11:07.937Z,14.03
2017-11-22T15:13:35.610Z,13.98
2017-11-22T15:16:03.241Z,13.94
2017-11-22T15:18:30.866Z,13.84
2017-11-22T15:20:58.516Z,13.79
2017-11-22T15:23:26.211Z,13.78
2017-11-22T15:25:53.814Z,13.73
2017-11-22T15:28:21.449Z,13.68
2017-11-22T15:30:49.046Z,13.67
2017-11-22T15:33:16.682Z,13.64
2017-11-22T15:35:44.291Z,13.61
2017-11-22T15:38:11.950Z,13.57
2017-11-22T15:40:39.563Z,13.53
2017-11-22T15:43:07.238Z,13.46
2017-11-22T15:45:34.855Z,13.44
2017-11-22T15:48:02.601Z,13.45
2017-11-22T15:50:30.194Z,13.41
2017-11-22T15:52:57.862Z,13.34
2017-11-22T15:55:25.471Z,13.34
2017-11-22T15:57:53.114Z,13.32
2017-11-22T16:00:20.732Z,13.31
2017-11-22T16:02:48.478Z,13.29
2017-11-22T16:05:16.082Z,13.24
2017-11-22T16:07:43.732Z,13.22
2017-11-22T16:10:11.363Z,13.16
2017-11-22T16:12:39.097Z,13.08
2017-11-22T16:15:06.703Z,12.96
2017-11-22T16:17:34.356Z,12.88
2017-11-22T16:20:01.974Z,12.71
2017-11-22T16:22:29.735Z,12.57
2017-11-22T16:24:57.342Z,12.46
2017-11-22T16:27:24.983Z,12.39
2017-11-22T16:29:52.585Z,12.31
2017-11-22T16:32:20.223Z,12.27
2017-11-22T16:34:47.839Z,12.21
2017-11-22T16:37:15.507Z,12.14
2017-11-22T16:39:43.114Z,12.09
2017-11-22T16:42:10.746Z,12.08
2017-11-22T16:44:38.354Z,11.99
2017-11-22T16:47:06.015Z,11.97
2017-11-22T16:49:33.622Z,11.93
2017-11-22T16:52:01.276Z,11.92
2017-11-22T16:54:28.902Z,11.94
2017-11-22T16:56:56.536Z,11.91
2017-11-22T16:59:24.140Z,11.85
2017-11-22T17:01:51.792Z,11.82
2017-11-22T17:04:19.429Z,11.82
2017-11-22T17:06:47.191Z,11.80
2017-11-22T17:09:14.795Z,11.79
2017-11-22T17:11:42.432Z,11.78
2017-11-22T17:14:10.046Z,11.73
2017-11-22T17:16:37.723Z,11.74
2017-11-22T17:19:05.328Z,11.76
2017-11-22T17:21:32.979Z,11.74
2017-11-22T17:24:00.586Z,11.71
2017-11-22T17:26:28.223Z,11.69
2017-11-22T17:28:55.843Z,11.65
2017-11-22T17:31:23.483Z,11.66
2017-11-22T17:33:51.131Z,11.64
2017-11-22T17:36:18.797Z,11.62
2017-11-22T17:38:46.428Z,11.59
2017-11-22T17:41:14.094Z,11.59
2017-11-22T17:43:41.710Z,11.50
2017-11-22T17:46:09.355Z,11.43
2017-11-22T17:48:36.986Z,11.37
2017-11-22T17:51:04.691Z,11.33
2017-11-22T17:53:32.331Z,11.34
2017-11-22T17:55:59.980Z,11.35
2017-11-22T17:58:27.603Z,11.37
2017-11-22T18:00:55.282Z,11.42
2017-11-22T18:03:22.911Z,11.45
2017-11-22T18:05:50.543Z,11.47
2017-11-22T18:08:18.135Z,11.50
2017-11-22T18:10:45.782Z,11.47
2017-11-22T18:13:13.453Z,11.44
2017-11-22T18:15:41.166Z,11.44
2017-11-22T18:18:08.791Z,11.36
2017-11-22T18:20:36.434Z,11.34
2017-11-22T18:23:04.055Z,11.32
2017-11-22T18:25:31.707Z,11.26
2017-11-22T18:27:59.314Z,11.24
2017-11-22T18:30:27.010Z,11.18
2017-11-22T18:32:54.626Z,11.19
2017-11-22T18:35:22.272Z,11.20
2017-11-22T18:37:49.934Z,11.14
2017-11-22T18:40:17.616Z,11.06
2017-11-22T18:42:45.233Z,10.98
2017-11-22T18:45:12.891Z,10.96
2017-11-22T18:47:40.499Z,10.94
2017-11-22T18:50:08.110Z,10.90
2017-11-22T18:52:35.763Z,10.90
2017-11-22T18:55:03.399Z,10.85
2017-11-22T18:57:31.082Z,10.85
2017-11-22T18:59:58.708Z,10.86
2017-11-22T19:02:26.375Z,10.82
2017-11-22T19:04:53.985Z,10.77
2017-11-22T19:07:21.611Z,10.74
2017-11-22T19:09:49.215Z,10.71
2017-11-22T19:12:16.858Z,10.76
2017-11-22T19:14:44.467Z,10.75
2017-11-22T19:17:12.106Z,10.72
2017-11-22T19:19:39.735Z,10.71
2017-11-22T19:22:07.424Z,10.73
2017-11-22T19:24:35.033Z,10.78
2017-11-22T19:27:02.794Z,10.81
2017-11-22T19:29:30.400Z,10.78
2017-11-22T19:31:58.051Z,10.75
2017-11-22T19:34:25.707Z,10.76
2017-11-22T19:36:53.344Z,10.75
2017-11-22T19:39:20.959Z,10.71
2017-11-22T19:41:48.608Z,10.71
2017-11-22T19:44:16.212Z,10.74
2017-11-22T19:46:43.848Z,10.76
2017-11-22T19:49:11.464Z,10.72
2017-11-22T19:51:39.103Z,10.68
2017-11-22T19:54:06.715Z,10.69
2017-11-22T19:56:34.345Z,10.78
2017-11-22T19:59:01.952Z,10.75
2017-11-22T20:01:29.611Z,10.72
2017-11-22T20:03:57.260Z,10.64
2017-11-22T20:06:24.900Z,10.56
2017-11-22T20:08:52.495Z,10.51
2017-11-22T20:11:20.128Z,10.47
2017-11-22T20:13:47.732Z,10.42
2017-11-22T20:16:15.399Z,10.41
2017-11-22T20:18:43.006Z,10.38
2017-11-22T20:21:10.626Z,10.32
2017-11-22T20:23:38.213Z,10.33
2017-11-22T20:26:05.860Z,10.31
2017-11-22T20:28:33.598Z,10.29
2017-11-22T20:31:01.236Z,10.34
2017-11-22T20:33:28.849Z,10.31
2017-11-22T20:35:56.672Z,10.30
2017-11-22T20:38:24.283Z,10.32
2017-11-22T20:40:51.937Z,10.29
2017-11-22T20:43:19.572Z,10.30
2017-11-22T20:45:47.217Z,10.31
2017-11-22T20:48:14.828Z,10.27
2017-11-22T20:50:42.475Z,10.27
2017-11-22T20:53:10.156Z,10.27
2017-11-22T20:55:37.823Z,10.27
2017-11-22T20:58:05.518Z,10.30
2017-11-22T21:00:33.179Z,10.33
2017-11-22T21:03:00.801Z,10.31
2017-11-22T21:05:28.492Z,10.29
2017-11-22T21:07:56.112Z,10.30
2017-11-22T21:10:23.755Z,10.28
2017-11-22T21:12:51.363Z,10.29
2017-11-22T21:15:19.000Z,10.29
2017-11-22T21:17:46.605Z,10.30
2017-11-22T21:20:14.267Z,10.26
2017-11-22T21:22:41.929Z,10.28
2017-11-22T21:25:09.576Z,10.26
2017-11-22T21:27:37.229Z,10.20
2017-11-22T21:30:04.872Z,10.18
2017-11-22T21:32:32.487Z,10.17
2017-11-22T21:35:00.196Z,10.11
2017-11-22T21:37:27.833Z,10.11
2017-11-22T21:39:55.477Z,10.13
2017-11-22T21:42:23.080Z,10.13
2017-11-22T21:44:50.738Z,10.13
2017-11-22T21:47:18.359Z,10.13
2017-11-22T21:49:46.111Z,10.16
2017-11-22T21:52:13.718Z,10.14
2017-11-22T21:54:41.358Z,10.15
2017-11-22T21:57:09.004Z,10.17
2017-11-22T21:59:36.659Z,10.15
2017-11-22T22:02:04.275Z,10.13
2017-11-22T22:04:31.911Z,10.11
2017-11-22T22:06:59.507Z,10.14
2017-11-22T22:09:27.162Z,10.15
2017-11-22T22:11:54.779Z,10.19
2017-11-22T22:14:22.524Z,10.18
2017-11-22T22:16:50.114Z,10.18
2017-11-22T22:19:17.860Z,10.16
2017-11-22T22:21:45.498Z,10.13
2017-11-22T22:24:13.096Z,10.16
2017-11-22T22:26:40.725Z,10.16
2017-11-22T22:29:08.372Z,10.17
2017-11-22T22:31:36.006Z,10.20
2017-11-22T22:34:03.636Z,10.17
2017-11-22T22:36:31.291Z,10.18
2017-11-22T22:38:58.907Z,10.19
2017-11-22T22:41:26.627Z,10.15
2017-11-22T22:43:54.236Z,10.16
2017-11-22T22:46:21.896Z,10.15
2017-11-22T22:48:49.491Z,10.14
2017-11-22T22:51:17.118Z,10.14
2017-11-22T22:53:44.715Z,10.16
2017-11-22T22:56:12.350Z,10.19
2017-11-22T22:58:39.949Z,10.20
2017-11-22T23:01:07.577Z,10.19
2017-11-22T23:03:35.175Z,10.24
2017-11-22T23:06:02.814Z,10.28
2017-11-22T23:08:30.417Z,10.31
2017-11-22T23:10:58.058Z,10.31
2017-11-22T23:13:25.670Z,10.31
2017-11-22T23:15:53.303Z,10.30
2017-11-22T23:18:20.910Z,10.30
2017-11-22T23:20:48.552Z,10.29
2017-11-22T23:23:16.142Z,10.31
2017-11-22T23:25:43.794Z,10.30
2017-11-22T23:28:11.380Z,10.31
2017-11-22T23:30:39.067Z,10.31
2017-11-22T23:33:06.665Z,10.33
2017-11-22T23:35:34.307Z,10.30
2017-11-22T23:38:01.908Z,10.28
2017-11-22T23:40:29.535Z,10.22
2017-11-22T23:42:57.143Z,10.19
2017-11-22T23:45:24.786Z,10.16
2017-11-22T23:47:52.411Z,10.12
2017-11-22T23:50:20.047Z,10.14
2017-11-22T23:52:47.675Z,10.19
2017-11-22T23:55:15.308Z,10.28
2017-11-22T23:57:42.914Z,10.28
